sensor_id;sensor_type;location;lat;lon;timestamp;P1;durP1;ratioP1;P2;durP2;ratioP2
56541;SDS011;42438;53.174;6.730;2023-12-04T00:00:45;34.35;;;15.23;;
56541;SDS011;42438;53.174;6.730;2023-12-04T00:03:15;35.47;;;17.52;;
56541;SDS011;42438;53.174;6.730;2023-12-04T00:05:46;34.35;;;15.15;;
56541;SDS011;42438;53.174;6.730;2023-12-04T00:08:16;34.63;;;15.13;;
56541;SDS011;42438;53.174;6.730;2023-12-04T00:10:47;34.08;;;15.30;;
56541;SDS011;42438;53.174;6.730;2023-12-04T00:13:18;39.10;;;16.77;;
56541;SDS011;42438;53.174;6.730;2023-12-04T00:15:49;44.83;;;18.58;;
56541;SDS011;42438;53.174;6.730;2023-12-04T00:18:20;34.65;;;14.95;;
56541;SDS011;42438;53.174;6.730;2023-12-04T00:20:50;29.85;;;13.40;;
56541;SDS011;42438;53.174;6.730;2023-12-04T00:23:22;34.50;;;14.57;;
56541;SDS011;42438;53.174;6.730;2023-12-04T00:25:53;34.03;;;15.27;;
56541;SDS011;42438;53.174;6.730;2023-12-04T00:28:25;37.40;;;15.55;;
56541;SDS011;42438;53.174;6.730;2023-12-04T00:30:55;29.73;;;15.70;;
56541;SDS011;42438;53.174;6.730;2023-12-04T00:33:26;32.55;;;15.13;;
56541;SDS011;42438;53.174;6.730;2023-12-04T00:35:57;31.70;;;14.20;;
56541;SDS011;42438;53.174;6.730;2023-12-04T00:38:28;37.25;;;15.80;;
56541;SDS011;42438;53.174;6.730;2023-12-04T00:40:58;36.88;;;15.18;;
56541;SDS011;42438;53.174;6.730;2023-12-04T00:43:29;39.30;;;15.70;;
56541;SDS011;42438;53.174;6.730;2023-12-04T00:45:59;35.90;;;15.85;;
56541;SDS011;42438;53.174;6.730;2023-12-04T00:48:30;40.95;;;16.50;;
56541;SDS011;42438;53.174;6.730;2023-12-04T00:51:01;39.28;;;16.05;;
56541;SDS011;42438;53.174;6.730;2023-12-04T00:53:31;32.88;;;14.38;;
56541;SDS011;42438;53.174;6.730;2023-12-04T00:56:02;32.47;;;14.13;;
56541;SDS011;42438;53.174;6.730;2023-12-04T00:58:33;30.10;;;13.40;;
56541;SDS011;42438;53.174;6.730;2023-12-04T01:01:04;30.30;;;13.15;;
56541;SDS011;42438;53.174;6.730;2023-12-04T01:03:34;37.28;;;14.35;;
56541;SDS011;42438;53.174;6.730;2023-12-04T01:06:05;31.98;;;14.98;;
56541;SDS011;42438;53.174;6.730;2023-12-04T01:08:36;29.98;;;13.20;;
56541;SDS011;42438;53.174;6.730;2023-12-04T01:11:07;33.42;;;14.25;;
56541;SDS011;42438;53.174;6.730;2023-12-04T01:13:38;30.20;;;13.20;;
56541;SDS011;42438;53.174;6.730;2023-12-04T01:16:08;31.33;;;13.63;;
56541;SDS011;42438;53.174;6.730;2023-12-04T01:18:39;29.00;;;12.73;;
56541;SDS011;42438;53.174;6.730;2023-12-04T01:21:10;29.23;;;13.80;;
56541;SDS011;42438;53.174;6.730;2023-12-04T01:23:41;29.65;;;14.15;;
56541;SDS011;42438;53.174;6.730;2023-12-04T01:26:12;26.90;;;12.90;;
56541;SDS011;42438;53.174;6.730;2023-12-04T01:28:42;28.40;;;12.93;;
56541;SDS011;42438;53.174;6.730;2023-12-04T01:31:13;29.45;;;13.88;;
56541;SDS011;42438;53.174;6.730;2023-12-04T01:33:43;35.63;;;14.00;;
56541;SDS011;42438;53.174;6.730;2023-12-04T01:36:14;27.95;;;12.98;;
56541;SDS011;42438;53.174;6.730;2023-12-04T01:38:45;28.80;;;13.10;;
56541;SDS011;42438;53.174;6.730;2023-12-04T01:41:15;34.40;;;14.40;;
56541;SDS011;42438;53.174;6.730;2023-12-04T01:43:46;31.88;;;13.85;;
56541;SDS011;42438;53.174;6.730;2023-12-04T01:46:16;31.92;;;14.93;;
56541;SDS011;42438;53.174;6.730;2023-12-04T01:48:47;29.00;;;13.10;;
56541;SDS011;42438;53.174;6.730;2023-12-04T01:51:19;34.53;;;14.07;;
56541;SDS011;42438;53.174;6.730;2023-12-04T01:53:51;29.35;;;13.82;;
56541;SDS011;42438;53.174;6.730;2023-12-04T01:56:22;29.55;;;12.93;;
56541;SDS011;42438;53.174;6.730;2023-12-04T01:58:52;30.08;;;13.32;;
56541;SDS011;42438;53.174;6.730;2023-12-04T02:01:23;33.45;;;14.15;;
56541;SDS011;42438;53.174;6.730;2023-12-04T02:03:54;34.33;;;14.48;;
56541;SDS011;42438;53.174;6.730;2023-12-04T02:06:26;30.30;;;14.25;;
56541;SDS011;42438;53.174;6.730;2023-12-04T02:08:57;31.55;;;14.52;;
56541;SDS011;42438;53.174;6.730;2023-12-04T02:11:28;31.45;;;14.05;;
56541;SDS011;42438;53.174;6.730;2023-12-04T02:13:59;30.42;;;14.00;;
56541;SDS011;42438;53.174;6.730;2023-12-04T02:16:29;32.08;;;13.90;;
56541;SDS011;42438;53.174;6.730;2023-12-04T02:19:02;28.13;;;13.95;;
56541;SDS011;42438;53.174;6.730;2023-12-04T02:21:34;34.95;;;13.68;;
56541;SDS011;42438;53.174;6.730;2023-12-04T02:24:04;31.08;;;13.77;;
56541;SDS011;42438;53.174;6.730;2023-12-04T02:26:38;30.42;;;14.52;;
56541;SDS011;42438;53.174;6.730;2023-12-04T02:29:16;35.67;;;15.63;;
56541;SDS011;42438;53.174;6.730;2023-12-04T02:32:11;33.55;;;13.77;;
56541;SDS011;42438;53.174;6.730;2023-12-04T02:34:45;33.67;;;14.85;;
56541;SDS011;42438;53.174;6.730;2023-12-04T02:37:18;35.10;;;15.65;;
56541;SDS011;42438;53.174;6.730;2023-12-04T02:39:50;37.20;;;15.50;;
56541;SDS011;42438;53.174;6.730;2023-12-04T02:42:25;34.35;;;14.55;;
56541;SDS011;42438;53.174;6.730;2023-12-04T02:44:55;35.35;;;15.25;;
56541;SDS011;42438;53.174;6.730;2023-12-04T02:47:26;27.05;;;13.20;;
56541;SDS011;42438;53.174;6.730;2023-12-04T02:49:56;30.45;;;13.20;;
56541;SDS011;42438;53.174;6.730;2023-12-04T02:52:27;29.25;;;13.20;;
56541;SDS011;42438;53.174;6.730;2023-12-04T02:54:58;32.30;;;13.27;;
56541;SDS011;42438;53.174;6.730;2023-12-04T02:57:28;31.95;;;14.05;;
56541;SDS011;42438;53.174;6.730;2023-12-04T02:59:59;32.08;;;15.63;;
56541;SDS011;42438;53.174;6.730;2023-12-04T03:02:29;32.50;;;13.90;;
56541;SDS011;42438;53.174;6.730;2023-12-04T03:05:00;34.38;;;13.80;;
56541;SDS011;42438;53.174;6.730;2023-12-04T03:07:31;35.25;;;15.45;;
56541;SDS011;42438;53.174;6.730;2023-12-04T03:10:02;30.75;;;13.25;;
56541;SDS011;42438;53.174;6.730;2023-12-04T03:12:33;30.10;;;13.25;;
56541;SDS011;42438;53.174;6.730;2023-12-04T03:15:04;32.10;;;13.57;;
56541;SDS011;42438;53.174;6.730;2023-12-04T03:17:35;33.08;;;14.15;;
56541;SDS011;42438;53.174;6.730;2023-12-04T03:20:05;29.08;;;14.07;;
56541;SDS011;42438;53.174;6.730;2023-12-04T03:22:38;31.20;;;13.75;;
56541;SDS011;42438;53.174;6.730;2023-12-04T03:25:09;32.85;;;14.40;;
56541;SDS011;42438;53.174;6.730;2023-12-04T03:27:39;34.00;;;13.90;;
56541;SDS011;42438;53.174;6.730;2023-12-04T03:30:10;32.88;;;15.10;;
56541;SDS011;42438;53.174;6.730;2023-12-04T03:32:41;35.85;;;15.02;;
56541;SDS011;42438;53.174;6.730;2023-12-04T03:35:12;30.00;;;14.25;;
56541;SDS011;42438;53.174;6.730;2023-12-04T03:37:42;28.33;;;13.32;;
56541;SDS011;42438;53.174;6.730;2023-12-04T03:40:13;29.13;;;13.98;;
56541;SDS011;42438;53.174;6.730;2023-12-04T03:42:44;30.20;;;13.18;;
56541;SDS011;42438;53.174;6.730;2023-12-04T03:45:14;31.15;;;13.60;;
56541;SDS011;42438;53.174;6.730;2023-12-04T03:47:45;31.83;;;13.30;;
56541;SDS011;42438;53.174;6.730;2023-12-04T03:50:15;33.05;;;13.43;;
56541;SDS011;42438;53.174;6.730;2023-12-04T03:52:46;32.45;;;14.77;;
56541;SDS011;42438;53.174;6.730;2023-12-04T03:55:17;31.52;;;13.30;;
56541;SDS011;42438;53.174;6.730;2023-12-04T03:57:49;28.88;;;13.48;;
56541;SDS011;42438;53.174;6.730;2023-12-04T04:00:20;30.83;;;13.18;;
56541;SDS011;42438;53.174;6.730;2023-12-04T04:02:51;32.15;;;13.38;;
56541;SDS011;42438;53.174;6.730;2023-12-04T04:05:22;34.00;;;13.75;;
56541;SDS011;42438;53.174;6.730;2023-12-04T04:07:52;31.08;;;14.90;;
56541;SDS011;42438;53.174;6.730;2023-12-04T04:10:23;31.85;;;14.13;;
56541;SDS011;42438;53.174;6.730;2023-12-04T04:12:54;30.92;;;13.55;;
56541;SDS011;42438;53.174;6.730;2023-12-04T04:15:24;33.00;;;14.07;;
56541;SDS011;42438;53.174;6.730;2023-12-04T04:17:55;35.90;;;13.05;;
56541;SDS011;42438;53.174;6.730;2023-12-04T04:20:26;31.60;;;12.50;;
56541;SDS011;42438;53.174;6.730;2023-12-04T04:22:57;30.77;;;13.80;;
56541;SDS011;42438;53.174;6.730;2023-12-04T04:25:27;34.05;;;14.25;;
56541;SDS011;42438;53.174;6.730;2023-12-04T04:27:58;38.10;;;14.63;;
56541;SDS011;42438;53.174;6.730;2023-12-04T04:30:29;28.05;;;13.45;;
56541;SDS011;42438;53.174;6.730;2023-12-04T04:32:59;29.90;;;13.68;;
56541;SDS011;42438;53.174;6.730;2023-12-04T04:35:30;28.58;;;12.68;;
56541;SDS011;42438;53.174;6.730;2023-12-04T04:38:00;32.05;;;12.50;;
56541;SDS011;42438;53.174;6.730;2023-12-04T04:40:31;28.02;;;14.10;;
56541;SDS011;42438;53.174;6.730;2023-12-04T04:43:02;27.45;;;12.70;;
56541;SDS011;42438;53.174;6.730;2023-12-04T04:45:32;29.52;;;13.27;;
56541;SDS011;42438;53.174;6.730;2023-12-04T04:48:03;28.00;;;12.63;;
56541;SDS011;42438;53.174;6.730;2023-12-04T04:50:34;28.85;;;12.90;;
56541;SDS011;42438;53.174;6.730;2023-12-04T04:53:04;31.05;;;13.02;;
56541;SDS011;42438;53.174;6.730;2023-12-04T04:55:35;30.83;;;14.63;;
56541;SDS011;42438;53.174;6.730;2023-12-04T04:58:05;30.88;;;14.07;;
56541;SDS011;42438;53.174;6.730;2023-12-04T05:00:36;30.67;;;14.35;;
56541;SDS011;42438;53.174;6.730;2023-12-04T05:03:07;27.63;;;13.82;;
56541;SDS011;42438;53.174;6.730;2023-12-04T05:05:37;30.17;;;13.48;;
56541;SDS011;42438;53.174;6.730;2023-12-04T05:08:08;28.67;;;13.05;;
56541;SDS011;42438;53.174;6.730;2023-12-04T05:10:39;31.58;;;13.07;;
56541;SDS011;42438;53.174;6.730;2023-12-04T05:13:09;35.63;;;14.48;;
56541;SDS011;42438;53.174;6.730;2023-12-04T05:15:40;32.83;;;13.93;;
56541;SDS011;42438;53.174;6.730;2023-12-04T05:18:10;32.50;;;14.02;;
56541;SDS011;42438;53.174;6.730;2023-12-04T05:20:41;31.17;;;13.80;;
56541;SDS011;42438;53.174;6.730;2023-12-04T05:23:12;34.22;;;13.48;;
56541;SDS011;42438;53.174;6.730;2023-12-04T05:25:42;31.85;;;14.65;;
56541;SDS011;42438;53.174;6.730;2023-12-04T05:28:13;29.70;;;13.30;;
56541;SDS011;42438;53.174;6.730;2023-12-04T05:30:44;32.13;;;13.30;;
56541;SDS011;42438;53.174;6.730;2023-12-04T05:33:14;31.65;;;13.93;;
56541;SDS011;42438;53.174;6.730;2023-12-04T05:35:46;32.33;;;14.35;;
56541;SDS011;42438;53.174;6.730;2023-12-04T05:38:18;27.98;;;13.05;;
56541;SDS011;42438;53.174;6.730;2023-12-04T05:40:49;35.03;;;14.50;;
56541;SDS011;42438;53.174;6.730;2023-12-04T05:43:19;41.53;;;18.55;;
56541;SDS011;42438;53.174;6.730;2023-12-04T05:45:50;39.88;;;15.73;;
56541;SDS011;42438;53.174;6.730;2023-12-04T05:48:20;43.90;;;15.50;;
56541;SDS011;42438;53.174;6.730;2023-12-04T05:50:51;38.80;;;15.35;;
56541;SDS011;42438;53.174;6.730;2023-12-04T05:53:22;40.25;;;16.13;;
56541;SDS011;42438;53.174;6.730;2023-12-04T05:55:52;35.50;;;14.90;;
56541;SDS011;42438;53.174;6.730;2023-12-04T05:58:23;35.63;;;14.82;;
56541;SDS011;42438;53.174;6.730;2023-12-04T06:00:53;35.55;;;15.38;;
56541;SDS011;42438;53.174;6.730;2023-12-04T06:03:24;37.10;;;14.57;;
56541;SDS011;42438;53.174;6.730;2023-12-04T06:05:54;37.45;;;14.10;;
56541;SDS011;42438;53.174;6.730;2023-12-04T06:08:25;34.35;;;14.30;;
56541;SDS011;42438;53.174;6.730;2023-12-04T06:10:56;32.92;;;14.68;;
56541;SDS011;42438;53.174;6.730;2023-12-04T06:13:26;43.65;;;15.90;;
56541;SDS011;42438;53.174;6.730;2023-12-04T06:15:57;45.40;;;15.73;;
56541;SDS011;42438;53.174;6.730;2023-12-04T06:18:28;36.97;;;14.63;;
56541;SDS011;42438;53.174;6.730;2023-12-04T06:20:59;36.22;;;15.45;;
56541;SDS011;42438;53.174;6.730;2023-12-04T06:23:30;39.38;;;16.00;;
56541;SDS011;42438;53.174;6.730;2023-12-04T06:26:01;38.42;;;15.38;;
56541;SDS011;42438;53.174;6.730;2023-12-04T06:28:31;37.10;;;16.20;;
56541;SDS011;42438;53.174;6.730;2023-12-04T06:31:02;35.88;;;15.80;;
56541;SDS011;42438;53.174;6.730;2023-12-04T06:33:33;36.88;;;15.52;;
56541;SDS011;42438;53.174;6.730;2023-12-04T06:36:05;39.45;;;15.05;;
56541;SDS011;42438;53.174;6.730;2023-12-04T06:38:37;34.60;;;14.20;;
56541;SDS011;42438;53.174;6.730;2023-12-04T06:41:10;44.42;;;15.48;;
56541;SDS011;42438;53.174;6.730;2023-12-04T06:43:41;41.60;;;17.20;;
56541;SDS011;42438;53.174;6.730;2023-12-04T06:46:12;48.13;;;16.63;;
56541;SDS011;42438;53.174;6.730;2023-12-04T06:48:45;44.70;;;16.33;;
56541;SDS011;42438;53.174;6.730;2023-12-04T06:51:18;44.25;;;16.30;;
56541;SDS011;42438;53.174;6.730;2023-12-04T06:53:48;36.15;;;15.95;;
56541;SDS011;42438;53.174;6.730;2023-12-04T06:56:19;34.95;;;14.35;;
56541;SDS011;42438;53.174;6.730;2023-12-04T06:58:50;35.35;;;14.23;;
56541;SDS011;42438;53.174;6.730;2023-12-04T07:01:20;37.05;;;13.60;;
56541;SDS011;42438;53.174;6.730;2023-12-04T07:03:51;37.53;;;13.57;;
56541;SDS011;42438;53.174;6.730;2023-12-04T07:06:22;37.17;;;14.93;;
56541;SDS011;42438;53.174;6.730;2023-12-04T07:08:53;34.50;;;13.38;;
56541;SDS011;42438;53.174;6.730;2023-12-04T07:11:23;30.48;;;13.88;;
56541;SDS011;42438;53.174;6.730;2023-12-04T07:13:54;40.92;;;16.38;;
56541;SDS011;42438;53.174;6.730;2023-12-04T07:16:25;39.13;;;15.68;;
56541;SDS011;42438;53.174;6.730;2023-12-04T07:18:56;35.83;;;12.68;;
56541;SDS011;42438;53.174;6.730;2023-12-04T07:21:26;36.83;;;14.75;;
56541;SDS011;42438;53.174;6.730;2023-12-04T07:23:57;38.10;;;14.23;;
56541;SDS011;42438;53.174;6.730;2023-12-04T07:26:27;39.75;;;16.10;;
56541;SDS011;42438;53.174;6.730;2023-12-04T07:28:58;36.15;;;15.75;;
56541;SDS011;42438;53.174;6.730;2023-12-04T07:31:29;35.28;;;14.90;;
56541;SDS011;42438;53.174;6.730;2023-12-04T07:33:59;36.70;;;14.57;;
56541;SDS011;42438;53.174;6.730;2023-12-04T07:36:32;34.88;;;15.00;;
56541;SDS011;42438;53.174;6.730;2023-12-04T07:39:02;41.17;;;15.48;;
56541;SDS011;42438;53.174;6.730;2023-12-04T07:41:36;30.65;;;13.25;;
56541;SDS011;42438;53.174;6.730;2023-12-04T07:44:07;35.65;;;14.15;;
56541;SDS011;42438;53.174;6.730;2023-12-04T07:46:38;29.77;;;11.57;;
56541;SDS011;42438;53.174;6.730;2023-12-04T07:49:08;27.08;;;12.50;;
56541;SDS011;42438;53.174;6.730;2023-12-04T07:51:39;29.00;;;12.00;;
56541;SDS011;42438;53.174;6.730;2023-12-04T07:54:10;33.92;;;13.70;;
56541;SDS011;42438;53.174;6.730;2023-12-04T07:56:41;34.90;;;15.32;;
56541;SDS011;42438;53.174;6.730;2023-12-04T07:59:12;36.95;;;13.90;;
56541;SDS011;42438;53.174;6.730;2023-12-04T08:01:43;31.65;;;13.57;;
56541;SDS011;42438;53.174;6.730;2023-12-04T08:04:14;34.22;;;14.43;;
56541;SDS011;42438;53.174;6.730;2023-12-04T08:06:46;31.85;;;13.07;;
56541;SDS011;42438;53.174;6.730;2023-12-04T08:09:16;26.90;;;12.02;;
56541;SDS011;42438;53.174;6.730;2023-12-04T08:11:47;23.92;;;11.18;;
56541;SDS011;42438;53.174;6.730;2023-12-04T08:14:17;35.88;;;20.02;;
56541;SDS011;42438;53.174;6.730;2023-12-04T08:16:48;64.07;;;28.08;;
56541;SDS011;42438;53.174;6.730;2023-12-04T08:19:19;55.97;;;22.58;;
56541;SDS011;42438;53.174;6.730;2023-12-04T08:21:49;82.90;;;36.08;;
56541;SDS011;42438;53.174;6.730;2023-12-04T08:24:20;59.50;;;27.48;;
56541;SDS011;42438;53.174;6.730;2023-12-04T08:26:51;44.53;;;16.27;;
56541;SDS011;42438;53.174;6.730;2023-12-04T08:29:22;45.38;;;21.92;;
56541;SDS011;42438;53.174;6.730;2023-12-04T08:31:52;42.38;;;17.02;;
56541;SDS011;42438;53.174;6.730;2023-12-04T08:34:23;52.10;;;28.85;;
56541;SDS011;42438;53.174;6.730;2023-12-04T08:36:53;41.55;;;20.08;;
56541;SDS011;42438;53.174;6.730;2023-12-04T08:39:25;31.88;;;15.82;;
56541;SDS011;42438;53.174;6.730;2023-12-04T08:41:55;32.83;;;13.73;;
56541;SDS011;42438;53.174;6.730;2023-12-04T08:44:26;28.25;;;13.57;;
56541;SDS011;42438;53.174;6.730;2023-12-04T08:46:57;27.23;;;13.27;;
56541;SDS011;42438;53.174;6.730;2023-12-04T08:49:27;31.33;;;12.38;;
56541;SDS011;42438;53.174;6.730;2023-12-04T08:51:58;29.05;;;12.93;;
56541;SDS011;42438;53.174;6.730;2023-12-04T08:54:29;30.48;;;13.18;;
56541;SDS011;42438;53.174;6.730;2023-12-04T08:56:59;23.58;;;10.35;;
56541;SDS011;42438;53.174;6.730;2023-12-04T08:59:30;22.88;;;10.85;;
56541;SDS011;42438;53.174;6.730;2023-12-04T09:02:01;22.10;;;10.70;;
56541;SDS011;42438;53.174;6.730;2023-12-04T09:04:35;21.08;;;9.95;;
56541;SDS011;42438;53.174;6.730;2023-12-04T09:07:05;19.48;;;8.70;;
56541;SDS011;42438;53.174;6.730;2023-12-04T09:09:36;21.55;;;9.98;;
56541;SDS011;42438;53.174;6.730;2023-12-04T09:12:06;23.40;;;10.10;;
56541;SDS011;42438;53.174;6.730;2023-12-04T09:14:38;24.38;;;11.38;;
56541;SDS011;42438;53.174;6.730;2023-12-04T09:17:09;29.63;;;12.70;;
56541;SDS011;42438;53.174;6.730;2023-12-04T09:19:40;31.52;;;12.73;;
56541;SDS011;42438;53.174;6.730;2023-12-04T09:22:11;34.42;;;12.77;;
56541;SDS011;42438;53.174;6.730;2023-12-04T09:24:41;25.45;;;10.73;;
56541;SDS011;42438;53.174;6.730;2023-12-04T09:27:12;23.88;;;10.82;;
56541;SDS011;42438;53.174;6.730;2023-12-04T09:29:43;25.98;;;11.23;;
56541;SDS011;42438;53.174;6.730;2023-12-04T09:32:13;23.33;;;10.63;;
56541;SDS011;42438;53.174;6.730;2023-12-04T09:34:44;31.02;;;13.00;;
56541;SDS011;42438;53.174;6.730;2023-12-04T09:37:15;29.65;;;12.10;;
56541;SDS011;42438;53.174;6.730;2023-12-04T09:39:45;41.45;;;17.77;;
56541;SDS011;42438;53.174;6.730;2023-12-04T09:42:19;24.67;;;11.98;;
56541;SDS011;42438;53.174;6.730;2023-12-04T09:44:50;36.95;;;17.10;;
56541;SDS011;42438;53.174;6.730;2023-12-04T09:47:22;23.43;;;11.33;;
56541;SDS011;42438;53.174;6.730;2023-12-04T09:49:53;25.80;;;11.20;;
56541;SDS011;42438;53.174;6.730;2023-12-04T09:52:24;29.95;;;17.70;;
56541;SDS011;42438;53.174;6.730;2023-12-04T09:54:57;29.50;;;12.10;;
56541;SDS011;42438;53.174;6.730;2023-12-04T09:57:28;21.67;;;10.88;;
56541;SDS011;42438;53.174;6.730;2023-12-04T10:00:00;27.33;;;11.77;;
56541;SDS011;42438;53.174;6.730;2023-12-04T10:02:32;29.85;;;14.13;;
56541;SDS011;42438;53.174;6.730;2023-12-04T10:05:04;30.88;;;12.85;;
56541;SDS011;42438;53.174;6.730;2023-12-04T10:07:36;28.10;;;11.40;;
56541;SDS011;42438;53.174;6.730;2023-12-04T10:10:07;22.77;;;11.35;;
56541;SDS011;42438;53.174;6.730;2023-12-04T10:12:38;20.45;;;10.48;;
56541;SDS011;42438;53.174;6.730;2023-12-04T10:15:10;17.00;;;8.45;;
56541;SDS011;42438;53.174;6.730;2023-12-04T10:17:41;33.28;;;13.48;;
56541;SDS011;42438;53.174;6.730;2023-12-04T10:20:14;21.45;;;10.07;;
56541;SDS011;42438;53.174;6.730;2023-12-04T10:28:09;19.25;;;9.38;;
56541;SDS011;42438;53.174;6.730;2023-12-04T10:30:41;24.65;;;11.23;;
56541;SDS011;42438;53.174;6.730;2023-12-04T10:33:12;25.23;;;11.27;;
56541;SDS011;42438;53.174;6.730;2023-12-04T10:35:44;22.15;;;10.00;;
56541;SDS011;42438;53.174;6.730;2023-12-04T10:38:17;32.25;;;13.57;;
56541;SDS011;42438;53.174;6.730;2023-12-04T10:40:48;26.83;;;12.70;;
56541;SDS011;42438;53.174;6.730;2023-12-04T10:43:22;29.27;;;14.18;;
56541;SDS011;42438;53.174;6.730;2023-12-04T10:45:54;40.13;;;18.02;;
56541;SDS011;42438;53.174;6.730;2023-12-04T10:48:25;41.15;;;18.98;;
56541;SDS011;42438;53.174;6.730;2023-12-04T10:50:56;24.80;;;13.23;;
56541;SDS011;42438;53.174;6.730;2023-12-04T10:53:28;44.17;;;21.88;;
56541;SDS011;42438;53.174;6.730;2023-12-04T10:55:59;22.05;;;11.27;;
56541;SDS011;42438;53.174;6.730;2023-12-04T10:58:32;23.75;;;13.25;;
56541;SDS011;42438;53.174;6.730;2023-12-04T11:01:04;40.35;;;17.75;;
56541;SDS011;42438;53.174;6.730;2023-12-04T11:03:44;19.05;;;9.88;;
56541;SDS011;42438;53.174;6.730;2023-12-04T11:06:18;16.23;;;8.95;;
56541;SDS011;42438;53.174;6.730;2023-12-04T11:08:51;25.30;;;12.68;;
56541;SDS011;42438;53.174;6.730;2023-12-04T11:11:27;15.48;;;8.43;;
56541;SDS011;42438;53.174;6.730;2023-12-04T11:14:04;19.33;;;8.60;;
56541;SDS011;42438;53.174;6.730;2023-12-04T11:16:48;29.77;;;12.68;;
56541;SDS011;42438;53.174;6.730;2023-12-04T11:19:28;15.80;;;8.25;;
56541;SDS011;42438;53.174;6.730;2023-12-04T11:22:05;19.33;;;9.77;;
56541;SDS011;42438;53.174;6.730;2023-12-04T11:24:37;16.43;;;7.80;;
56541;SDS011;42438;53.174;6.730;2023-12-04T11:27:09;15.20;;;7.82;;
56541;SDS011;42438;53.174;6.730;2023-12-04T11:29:40;14.65;;;7.05;;
56541;SDS011;42438;53.174;6.730;2023-12-04T11:32:14;24.67;;;14.40;;
56541;SDS011;42438;53.174;6.730;2023-12-04T11:34:51;14.75;;;7.95;;
56541;SDS011;42438;53.174;6.730;2023-12-04T11:37:29;15.20;;;7.20;;
56541;SDS011;42438;53.174;6.730;2023-12-04T11:40:02;16.88;;;7.32;;
56541;SDS011;42438;53.174;6.730;2023-12-04T11:42:34;18.65;;;9.57;;
56541;SDS011;42438;53.174;6.730;2023-12-04T11:45:06;17.52;;;8.57;;
56541;SDS011;42438;53.174;6.730;2023-12-04T11:47:49;16.77;;;8.10;;
56541;SDS011;42438;53.174;6.730;2023-12-04T11:50:26;14.20;;;7.43;;
56541;SDS011;42438;53.174;6.730;2023-12-04T11:52:57;15.70;;;7.57;;
56541;SDS011;42438;53.174;6.730;2023-12-04T11:55:27;15.43;;;7.43;;
56541;SDS011;42438;53.174;6.730;2023-12-04T11:57:58;24.60;;;10.98;;
56541;SDS011;42438;53.174;6.730;2023-12-04T12:00:29;15.65;;;8.48;;
56541;SDS011;42438;53.174;6.730;2023-12-04T12:03:00;20.63;;;9.57;;
56541;SDS011;42438;53.174;6.730;2023-12-04T12:05:33;14.57;;;7.72;;
56541;SDS011;42438;53.174;6.730;2023-12-04T12:08:05;20.45;;;10.00;;
56541;SDS011;42438;53.174;6.730;2023-12-04T12:10:37;16.05;;;8.32;;
56541;SDS011;42438;53.174;6.730;2023-12-04T12:13:07;16.02;;;8.02;;
56541;SDS011;42438;53.174;6.730;2023-12-04T12:15:40;16.38;;;8.32;;
56541;SDS011;42438;53.174;6.730;2023-12-04T12:18:11;14.23;;;7.45;;
56541;SDS011;42438;53.174;6.730;2023-12-04T12:20:41;14.77;;;7.55;;
56541;SDS011;42438;53.174;6.730;2023-12-04T12:23:12;14.10;;;7.38;;
56541;SDS011;42438;53.174;6.730;2023-12-04T12:25:43;12.57;;;6.88;;
56541;SDS011;42438;53.174;6.730;2023-12-04T12:28:13;19.13;;;6.70;;
56541;SDS011;42438;53.174;6.730;2023-12-04T12:30:45;13.13;;;7.68;;
56541;SDS011;42438;53.174;6.730;2023-12-04T12:33:15;18.45;;;8.35;;
56541;SDS011;42438;53.174;6.730;2023-12-04T12:35:47;15.05;;;7.40;;
56541;SDS011;42438;53.174;6.730;2023-12-04T12:38:18;15.38;;;7.55;;
56541;SDS011;42438;53.174;6.730;2023-12-04T12:40:49;14.38;;;7.38;;
56541;SDS011;42438;53.174;6.730;2023-12-04T12:43:20;15.32;;;7.88;;
56541;SDS011;42438;53.174;6.730;2023-12-04T12:45:53;15.30;;;8.20;;
56541;SDS011;42438;53.174;6.730;2023-12-04T12:48:24;12.73;;;6.65;;
56541;SDS011;42438;53.174;6.730;2023-12-04T12:50:57;14.90;;;7.10;;
56541;SDS011;42438;53.174;6.730;2023-12-04T12:53:27;16.92;;;7.72;;
56541;SDS011;42438;53.174;6.730;2023-12-04T12:55:59;14.18;;;8.18;;
56541;SDS011;42438;53.174;6.730;2023-12-04T12:58:31;11.45;;;7.13;;
56541;SDS011;42438;53.174;6.730;2023-12-04T13:01:01;15.18;;;7.82;;
56541;SDS011;42438;53.174;6.730;2023-12-04T13:03:32;15.00;;;8.00;;
56541;SDS011;42438;53.174;6.730;2023-12-04T13:06:04;15.07;;;8.13;;
56541;SDS011;42438;53.174;6.730;2023-12-04T13:08:35;14.02;;;8.15;;
56541;SDS011;42438;53.174;6.730;2023-12-04T13:11:07;20.45;;;10.90;;
56541;SDS011;42438;53.174;6.730;2023-12-04T13:13:38;13.48;;;7.72;;
56541;SDS011;42438;53.174;6.730;2023-12-04T13:16:09;18.27;;;8.60;;
56541;SDS011;42438;53.174;6.730;2023-12-04T13:18:41;13.02;;;7.20;;
56541;SDS011;42438;53.174;6.730;2023-12-04T13:21:12;14.05;;;6.85;;
56541;SDS011;42438;53.174;6.730;2023-12-04T13:23:43;14.77;;;8.20;;
56541;SDS011;42438;53.174;6.730;2023-12-04T13:26:13;12.05;;;6.47;;
56541;SDS011;42438;53.174;6.730;2023-12-04T13:28:45;14.25;;;6.13;;
56541;SDS011;42438;53.174;6.730;2023-12-04T13:31:18;15.20;;;7.32;;
56541;SDS011;42438;53.174;6.730;2023-12-04T13:33:50;13.00;;;6.78;;
56541;SDS011;42438;53.174;6.730;2023-12-04T13:36:21;16.45;;;7.18;;
56541;SDS011;42438;53.174;6.730;2023-12-04T13:38:54;13.65;;;7.30;;
56541;SDS011;42438;53.174;6.730;2023-12-04T13:41:24;16.02;;;7.88;;
56541;SDS011;42438;53.174;6.730;2023-12-04T13:44:14;14.02;;;7.05;;
56541;SDS011;42438;53.174;6.730;2023-12-04T13:46:45;14.98;;;8.13;;
56541;SDS011;42438;53.174;6.730;2023-12-04T13:49:17;13.43;;;7.03;;
56541;SDS011;42438;53.174;6.730;2023-12-04T13:51:49;13.63;;;7.57;;
56541;SDS011;42438;53.174;6.730;2023-12-04T13:54:20;14.98;;;6.60;;
56541;SDS011;42438;53.174;6.730;2023-12-04T13:56:57;13.25;;;7.18;;
56541;SDS011;42438;53.174;6.730;2023-12-04T13:59:28;15.13;;;7.32;;
56541;SDS011;42438;53.174;6.730;2023-12-04T14:02:02;14.63;;;7.75;;
56541;SDS011;42438;53.174;6.730;2023-12-04T14:04:34;13.85;;;7.18;;
56541;SDS011;42438;53.174;6.730;2023-12-04T14:07:05;13.57;;;7.45;;
56541;SDS011;42438;53.174;6.730;2023-12-04T14:12:09;14.32;;;6.88;;
56541;SDS011;42438;53.174;6.730;2023-12-04T14:14:40;11.70;;;6.90;;
56541;SDS011;42438;53.174;6.730;2023-12-04T14:17:11;13.45;;;6.97;;
56541;SDS011;42438;53.174;6.730;2023-12-04T14:19:42;14.40;;;7.22;;
56541;SDS011;42438;53.174;6.730;2023-12-04T14:22:12;12.88;;;6.57;;
56541;SDS011;42438;53.174;6.730;2023-12-04T14:24:43;15.65;;;7.43;;
56541;SDS011;42438;53.174;6.730;2023-12-04T14:27:13;14.07;;;7.32;;
56541;SDS011;42438;53.174;6.730;2023-12-04T14:29:44;13.15;;;7.20;;
56541;SDS011;42438;53.174;6.730;2023-12-04T14:32:15;16.45;;;7.05;;
56541;SDS011;42438;53.174;6.730;2023-12-04T14:34:46;14.32;;;6.32;;
56541;SDS011;42438;53.174;6.730;2023-12-04T14:37:16;14.73;;;7.78;;
56541;SDS011;42438;53.174;6.730;2023-12-04T14:39:47;15.85;;;8.05;;
56541;SDS011;42438;53.174;6.730;2023-12-04T14:42:17;11.95;;;6.90;;
56541;SDS011;42438;53.174;6.730;2023-12-04T14:44:48;15.38;;;7.55;;
56541;SDS011;42438;53.174;6.730;2023-12-04T14:47:18;15.43;;;7.22;;
56541;SDS011;42438;53.174;6.730;2023-12-04T14:49:49;16.63;;;8.23;;
56541;SDS011;42438;53.174;6.730;2023-12-04T14:52:24;17.48;;;8.18;;
56541;SDS011;42438;53.174;6.730;2023-12-04T14:54:58;16.67;;;7.68;;
56541;SDS011;42438;53.174;6.730;2023-12-04T14:57:47;12.05;;;6.80;;